Reklama

Seznam meteostanic a jejich METAR

Vyhledat místa podle abecedy:
A B C D E F G H I J K L M N O P Q R S T U V W X Y Z

Filtrovat:

ID stanice:
a/nebo
Název místa (fulltext):
 
Místo (ID)Naposledy načteno 
Verona (LIPX) 15.12.2019 19:50 UTC Zobrazit METAR
LIPX 151950Z 21003KT 9999 SCT040 BKN070 06/04 Q1018
Vienna (LOWW) 15.12.2019 19:50 UTC Zobrazit METAR
LOWW 151950Z 16006KT CAVOK 02/01 Q1013 NOSIG
Vientiane (VLVT) 15.12.2019 16:00 UTC Zobrazit METAR
VLVT 151600Z 32002KT 3000 BR NSC 19/19 Q1015 NOSIG
Vieuxfort (TLPL) 15.12.2019 20:00 UTC Zobrazit METAR
TLPL 152000Z 08016KT 9999 BKN026 29/24 Q1014 NOSIG
Vilnius (EYVI) 15.12.2019 18:50 UTC Zobrazit METAR
EYVI 151850Z 19013KT CAVOK 02/00 Q1002 R19/2///95 NOSIG
Vitebsk (UMII) Zatím nenačteno  
Volgograd (URWW) Zatím nenačteno  
Voronezh (UUOO) Zatím nenačteno  
Wake Island (PWAK) 15.12.2019 19:58 UTC Zobrazit METAR
PWAK 151958Z AUTO 07011KT 9000 HZ BKN055 25/20 A2998 RMK AO2 SLP159 T02520196 $
Warsaw (EPWA) 15.12.2019 20:00 UTC Zobrazit METAR
EPWA 152000Z 24010KT CAVOK 09/05 Q1006 NOSIG
Washington (KIAD) 15.12.2019 19:52 UTC Zobrazit METAR
KIAD 151952Z 34011G18KT 10SM FEW060 11/M02 A3000 RMK AO2 SLP161 T01061017
Wellington (NZWN) 15.12.2019 20:00 UTC Zobrazit METAR
NZWN 152000Z AUTO 36016KT 9999 -RA BKN026/// BKN039/// 17/15 Q1010 TEMPO TL2100 6000 SHRA BKN014
Windhoek (FYWH) 15.12.2019 13:00 UTC Zobrazit METAR
FYWH 151300Z 05006KT 9999 SCT050 32/00 Q1020 NOSIG
Wroclaw (EPWR) 15.12.2019 20:00 UTC Zobrazit METAR
EPWR 152000Z 26009KT CAVOK 09/03 Q1009
Yamoussoukro (DIYO) 15.12.2019 20:00 UTC Zobrazit METAR
DIYO 152000Z 00000KT 9999 FEW013 26/24 Q1010 NOSIG
Yangon (VYYY) 15.12.2019 19:30 UTC Zobrazit METAR
VYYY 151930Z 03003KT 6000 NSC 23/20 Q1013
Yaounde (FKYS) 15.12.2019 20:00 UTC Zobrazit METAR
FKYS 152000Z 00000KT 6000 FEW006 22/21 Q1016 NOSIG
Yerevan (UGEE) Zatím nenačteno  
Zadar (LDZD) 15.12.2019 20:00 UTC Zobrazit METAR
LDZD 152000Z VRB02KT CAVOK 04/03 Q1020 NOSIG
Zagreb (LDZA) 15.12.2019 20:00 UTC Zobrazit METAR
LDZA 152000Z 04005KT CAVOK 05/03 Q1016 NOSIG
Zaragoza (LEZG) 15.12.2019 20:00 UTC Zobrazit METAR
LEZG 152000Z 19005KT 150V210 CAVOK 10/05 Q1012
Zhezkazgan (UAKD) Zatím nenačteno  
Zurich (LSZH) 15.12.2019 19:50 UTC Zobrazit METAR
LSZH 151950Z 12002KT CAVOK 08/06 Q1012 NOSIG
Předchozí 1 ... 7 8 9
Reklama

Počasí na Váš email

Emaily jsou bez reklamy a bez spamu



Odhlásit newsletter

Reklama


Lunární kalendář

  • 19.12.
  • 26.12.
  • 03.01.
  • 10.01.



Reklama


Reklama
Povinné ručení
Reklama



Reklama